ENEG weather

Eggemoen Airport
H√łnefoss, Buskerud, Norway

Public forecast

Using degrees Celsius for public forecast. Weather courtesy of forecast.io.

METAR (pilot weather report)

Closest report is Oslo, Fornebu Airport, 21.2 nm (39.3 km) SSE. Retrieved 2019/05/24 00:20 UTC (7 minutes ago):

ENFB 240020Z AUTO 09017KT 9999NDV NCD 09/05 Q1006 W///S5

TAF (pilot weather forecast)

Forecast is more than 12 hours old.

Closest forecast is Oslo Gardermoen Airport, 23.2 nm (43.0 km) E. Retrieved 2019/05/23 00:57 UTC (24 hours ago):

TAF ENGM 232300Z 2400/2424 17012KT 9999 FEW015 BKN025 TEMPO 2400/2418 2000 SHRA BR BKN004 SCT015CB BECMG 2409/2411 04008KT